sensor_id;sensor_type;location;lat;lon;timestamp;P1;durP1;ratioP1;P2;durP2;ratioP2
1004;SDS011;491;53.480;10.174;2024-03-08T00:01:59;18.80;;;11.33;;
1004;SDS011;491;53.480;10.174;2024-03-08T00:04:25;15.63;;;11.83;;
1004;SDS011;491;53.480;10.174;2024-03-08T00:06:51;18.93;;;12.60;;
1004;SDS011;491;53.480;10.174;2024-03-08T00:09:17;16.90;;;10.90;;
1004;SDS011;491;53.480;10.174;2024-03-08T00:11:43;17.03;;;11.37;;
1004;SDS011;491;53.480;10.174;2024-03-08T00:14:09;20.80;;;13.20;;
1004;SDS011;491;53.480;10.174;2024-03-08T00:16:35;20.93;;;12.50;;
1004;SDS011;491;53.480;10.174;2024-03-08T00:19:02;16.67;;;10.90;;
1004;SDS011;491;53.480;10.174;2024-03-08T00:21:28;18.00;;;12.50;;
1004;SDS011;491;53.480;10.174;2024-03-08T00:23:54;14.93;;;11.43;;
1004;SDS011;491;53.480;10.174;2024-03-08T00:26:20;27.20;;;13.47;;
1004;SDS011;491;53.480;10.174;2024-03-08T00:28:47;19.37;;;12.77;;
1004;SDS011;491;53.480;10.174;2024-03-08T00:31:13;16.43;;;11.87;;
1004;SDS011;491;53.480;10.174;2024-03-08T00:33:41;20.33;;;13.10;;
1004;SDS011;491;53.480;10.174;2024-03-08T00:36:07;21.17;;;13.53;;
1004;SDS011;491;53.480;10.174;2024-03-08T00:38:33;21.57;;;13.30;;
1004;SDS011;491;53.480;10.174;2024-03-08T00:40:59;21.60;;;13.10;;
1004;SDS011;491;53.480;10.174;2024-03-08T00:43:25;25.10;;;12.77;;
1004;SDS011;491;53.480;10.174;2024-03-08T00:45:51;20.70;;;13.30;;
1004;SDS011;491;53.480;10.174;2024-03-08T00:48:17;22.50;;;15.30;;
1004;SDS011;491;53.480;10.174;2024-03-08T00:50:43;26.57;;;17.40;;
1004;SDS011;491;53.480;10.174;2024-03-08T00:53:12;27.43;;;17.50;;
1004;SDS011;491;53.480;10.174;2024-03-08T00:55:38;22.53;;;13.43;;
1004;SDS011;491;53.480;10.174;2024-03-08T00:58:04;19.33;;;11.50;;
1004;SDS011;491;53.480;10.174;2024-03-08T01:00:30;21.00;;;11.77;;
1004;SDS011;491;53.480;10.174;2024-03-08T01:02:56;19.37;;;12.30;;
1004;SDS011;491;53.480;10.174;2024-03-08T01:05:24;21.40;;;12.23;;
1004;SDS011;491;53.480;10.174;2024-03-08T01:07:50;22.70;;;13.80;;
1004;SDS011;491;53.480;10.174;2024-03-08T01:10:16;20.80;;;12.93;;
1004;SDS011;491;53.480;10.174;2024-03-08T01:12:42;18.70;;;12.50;;
1004;SDS011;491;53.480;10.174;2024-03-08T01:15:09;24.70;;;14.80;;
1004;SDS011;491;53.480;10.174;2024-03-08T01:17:35;22.67;;;14.67;;
1004;SDS011;491;53.480;10.174;2024-03-08T01:20:02;22.77;;;12.60;;
1004;SDS011;491;53.480;10.174;2024-03-08T01:22:28;20.43;;;12.93;;
1004;SDS011;491;53.480;10.174;2024-03-08T01:24:55;16.00;;;10.87;;
1004;SDS011;491;53.480;10.174;2024-03-08T01:27:20;19.40;;;11.80;;
1004;SDS011;491;53.480;10.174;2024-03-08T01:29:46;21.07;;;11.70;;
1004;SDS011;491;53.480;10.174;2024-03-08T01:32:12;21.07;;;12.50;;
1004;SDS011;491;53.480;10.174;2024-03-08T01:34:39;19.10;;;12.17;;
1004;SDS011;491;53.480;10.174;2024-03-08T01:37:05;20.23;;;11.33;;
1004;SDS011;491;53.480;10.174;2024-03-08T01:39:31;19.87;;;12.50;;
1004;SDS011;491;53.480;10.174;2024-03-08T01:41:57;21.30;;;11.80;;
1004;SDS011;491;53.480;10.174;2024-03-08T01:44:23;19.33;;;12.27;;
1004;SDS011;491;53.480;10.174;2024-03-08T01:46:49;20.30;;;13.33;;
1004;SDS011;491;53.480;10.174;2024-03-08T01:49:17;21.03;;;13.80;;
1004;SDS011;491;53.480;10.174;2024-03-08T01:51:45;24.00;;;13.67;;
1004;SDS011;491;53.480;10.174;2024-03-08T01:54:11;17.20;;;12.37;;
1004;SDS011;491;53.480;10.174;2024-03-08T01:56:38;19.37;;;12.77;;
1004;SDS011;491;53.480;10.174;2024-03-08T01:59:04;21.10;;;12.63;;
1004;SDS011;491;53.480;10.174;2024-03-08T02:01:32;22.40;;;13.40;;
1004;SDS011;491;53.480;10.174;2024-03-08T02:03:58;20.57;;;11.17;;
1004;SDS011;491;53.480;10.174;2024-03-08T02:06:25;22.70;;;13.80;;
1004;SDS011;491;53.480;10.174;2024-03-08T02:08:51;21.97;;;12.80;;
1004;SDS011;491;53.480;10.174;2024-03-08T02:11:17;21.17;;;12.90;;
1004;SDS011;491;53.480;10.174;2024-03-08T02:13:43;21.73;;;12.57;;
1004;SDS011;491;53.480;10.174;2024-03-08T02:16:09;19.43;;;12.53;;
1004;SDS011;491;53.480;10.174;2024-03-08T02:18:36;21.93;;;13.60;;
1004;SDS011;491;53.480;10.174;2024-03-08T02:21:04;20.53;;;14.57;;
1004;SDS011;491;53.480;10.174;2024-03-08T02:23:30;21.70;;;13.50;;
1004;SDS011;491;53.480;10.174;2024-03-08T02:25:57;22.43;;;13.07;;
1004;SDS011;491;53.480;10.174;2024-03-08T02:28:23;16.80;;;11.07;;
1004;SDS011;491;53.480;10.174;2024-03-08T02:30:50;24.37;;;14.50;;
1004;SDS011;491;53.480;10.174;2024-03-08T02:33:16;19.17;;;12.13;;
1004;SDS011;491;53.480;10.174;2024-03-08T02:35:43;21.60;;;12.97;;
1004;SDS011;491;53.480;10.174;2024-03-08T02:38:15;23.90;;;12.70;;
1004;SDS011;491;53.480;10.174;2024-03-08T02:40:47;24.53;;;14.70;;
1004;SDS011;491;53.480;10.174;2024-03-08T02:43:14;20.97;;;12.30;;
1004;SDS011;491;53.480;10.174;2024-03-08T02:45:40;19.53;;;13.87;;
1004;SDS011;491;53.480;10.174;2024-03-08T02:48:10;24.73;;;15.27;;
1004;SDS011;491;53.480;10.174;2024-03-08T02:50:36;24.90;;;17.20;;
1004;SDS011;491;53.480;10.174;2024-03-08T02:53:02;21.93;;;14.03;;
1004;SDS011;491;53.480;10.174;2024-03-08T02:55:28;20.73;;;13.30;;
1004;SDS011;491;53.480;10.174;2024-03-08T02:57:54;28.00;;;14.57;;
1004;SDS011;491;53.480;10.174;2024-03-08T03:00:20;20.23;;;14.07;;
1004;SDS011;491;53.480;10.174;2024-03-08T03:02:48;19.67;;;12.17;;
1004;SDS011;491;53.480;10.174;2024-03-08T03:05:18;24.10;;;14.23;;
1004;SDS011;491;53.480;10.174;2024-03-08T03:07:44;20.83;;;13.77;;
1004;SDS011;491;53.480;10.174;2024-03-08T03:10:10;24.43;;;15.70;;
1004;SDS011;491;53.480;10.174;2024-03-08T03:12:37;21.53;;;12.47;;
1004;SDS011;491;53.480;10.174;2024-03-08T03:15:04;25.10;;;14.10;;
1004;SDS011;491;53.480;10.174;2024-03-08T03:17:31;21.67;;;13.73;;
1004;SDS011;491;53.480;10.174;2024-03-08T03:19:57;26.67;;;14.13;;
1004;SDS011;491;53.480;10.174;2024-03-08T03:22:23;19.63;;;14.47;;
1004;SDS011;491;53.480;10.174;2024-03-08T03:24:50;22.10;;;13.50;;
1004;SDS011;491;53.480;10.174;2024-03-08T03:27:16;25.30;;;15.20;;
1004;SDS011;491;53.480;10.174;2024-03-08T03:29:43;22.50;;;13.87;;
1004;SDS011;491;53.480;10.174;2024-03-08T03:32:12;26.90;;;15.67;;
1004;SDS011;491;53.480;10.174;2024-03-08T03:34:38;25.50;;;14.40;;
1004;SDS011;491;53.480;10.174;2024-03-08T03:37:04;20.10;;;14.17;;
1004;SDS011;491;53.480;10.174;2024-03-08T03:39:31;23.87;;;12.67;;
1004;SDS011;491;53.480;10.174;2024-03-08T03:41:59;23.53;;;13.73;;
1004;SDS011;491;53.480;10.174;2024-03-08T03:44:26;26.73;;;13.07;;
1004;SDS011;491;53.480;10.174;2024-03-08T03:46:52;22.80;;;13.50;;
1004;SDS011;491;53.480;10.174;2024-03-08T03:49:18;24.07;;;14.70;;
1004;SDS011;491;53.480;10.174;2024-03-08T03:51:44;32.00;;;15.03;;
1004;SDS011;491;53.480;10.174;2024-03-08T03:54:10;24.80;;;14.20;;
1004;SDS011;491;53.480;10.174;2024-03-08T03:56:37;21.97;;;12.17;;
1004;SDS011;491;53.480;10.174;2024-03-08T03:59:04;24.93;;;13.97;;
1004;SDS011;491;53.480;10.174;2024-03-08T04:01:31;22.03;;;13.97;;
1004;SDS011;491;53.480;10.174;2024-03-08T04:03:57;25.37;;;14.87;;
1004;SDS011;491;53.480;10.174;2024-03-08T04:06:23;26.37;;;14.03;;
1004;SDS011;491;53.480;10.174;2024-03-08T04:08:49;22.17;;;13.50;;
1004;SDS011;491;53.480;10.174;2024-03-08T04:11:15;21.50;;;13.67;;
1004;SDS011;491;53.480;10.174;2024-03-08T04:13:42;25.23;;;14.57;;
1004;SDS011;491;53.480;10.174;2024-03-08T04:16:07;26.63;;;13.17;;
1004;SDS011;491;53.480;10.174;2024-03-08T04:18:36;23.43;;;12.70;;
1004;SDS011;491;53.480;10.174;2024-03-08T04:21:04;21.33;;;14.40;;
1004;SDS011;491;53.480;10.174;2024-03-08T04:23:33;22.23;;;13.00;;
1004;SDS011;491;53.480;10.174;2024-03-08T04:26:02;29.33;;;14.93;;
1004;SDS011;491;53.480;10.174;2024-03-08T04:28:29;23.37;;;14.13;;
1004;SDS011;491;53.480;10.174;2024-03-08T04:30:56;23.77;;;13.97;;
1004;SDS011;491;53.480;10.174;2024-03-08T04:33:22;25.23;;;15.30;;
1004;SDS011;491;53.480;10.174;2024-03-08T04:35:48;28.13;;;16.37;;
1004;SDS011;491;53.480;10.174;2024-03-08T04:38:14;28.97;;;16.27;;
1004;SDS011;491;53.480;10.174;2024-03-08T04:40:40;23.20;;;13.60;;
1004;SDS011;491;53.480;10.174;2024-03-08T04:43:06;21.00;;;12.53;;
1004;SDS011;491;53.480;10.174;2024-03-08T04:45:33;23.90;;;12.80;;
1004;SDS011;491;53.480;10.174;2024-03-08T04:47:59;21.23;;;13.57;;
1004;SDS011;491;53.480;10.174;2024-03-08T04:50:25;23.07;;;14.93;;
1004;SDS011;491;53.480;10.174;2024-03-08T04:52:53;21.73;;;12.13;;
1004;SDS011;491;53.480;10.174;2024-03-08T04:55:19;27.00;;;14.97;;
1004;SDS011;491;53.480;10.174;2024-03-08T04:57:46;25.90;;;15.97;;
1004;SDS011;491;53.480;10.174;2024-03-08T05:00:12;27.10;;;13.73;;
1004;SDS011;491;53.480;10.174;2024-03-08T05:02:39;31.47;;;16.50;;
1004;SDS011;491;53.480;10.174;2024-03-08T05:05:06;23.70;;;13.57;;
1004;SDS011;491;53.480;10.174;2024-03-08T05:07:32;24.13;;;15.17;;
1004;SDS011;491;53.480;10.174;2024-03-08T05:09:58;22.77;;;12.87;;
1004;SDS011;491;53.480;10.174;2024-03-08T05:12:24;27.63;;;15.63;;
1004;SDS011;491;53.480;10.174;2024-03-08T05:14:50;24.57;;;15.00;;
1004;SDS011;491;53.480;10.174;2024-03-08T05:17:16;25.97;;;13.67;;
1004;SDS011;491;53.480;10.174;2024-03-08T05:19:42;25.30;;;14.70;;
1004;SDS011;491;53.480;10.174;2024-03-08T05:22:08;27.53;;;16.43;;
1004;SDS011;491;53.480;10.174;2024-03-08T05:24:34;24.67;;;15.90;;
1004;SDS011;491;53.480;10.174;2024-03-08T05:27:00;28.07;;;15.33;;
1004;SDS011;491;53.480;10.174;2024-03-08T05:29:27;23.13;;;15.17;;
1004;SDS011;491;53.480;10.174;2024-03-08T05:31:53;31.27;;;15.37;;
1004;SDS011;491;53.480;10.174;2024-03-08T05:34:20;28.53;;;15.00;;
1004;SDS011;491;53.480;10.174;2024-03-08T05:36:55;31.87;;;16.03;;
1004;SDS011;491;53.480;10.174;2024-03-08T05:39:25;23.73;;;14.97;;
1004;SDS011;491;53.480;10.174;2024-03-08T05:41:51;26.73;;;15.40;;
1004;SDS011;491;53.480;10.174;2024-03-08T05:44:17;28.53;;;15.60;;
1004;SDS011;491;53.480;10.174;2024-03-08T05:46:43;22.90;;;12.67;;
1004;SDS011;491;53.480;10.174;2024-03-08T05:49:09;30.33;;;17.20;;
1004;SDS011;491;53.480;10.174;2024-03-08T05:51:37;28.27;;;16.13;;
1004;SDS011;491;53.480;10.174;2024-03-08T05:54:04;28.13;;;14.93;;
1004;SDS011;491;53.480;10.174;2024-03-08T05:56:30;22.73;;;14.73;;
1004;SDS011;491;53.480;10.174;2024-03-08T05:58:56;23.90;;;14.93;;
1004;SDS011;491;53.480;10.174;2024-03-08T06:01:25;33.00;;;17.37;;
1004;SDS011;491;53.480;10.174;2024-03-08T06:03:52;29.67;;;15.90;;
1004;SDS011;491;53.480;10.174;2024-03-08T06:06:20;25.10;;;14.83;;
1004;SDS011;491;53.480;10.174;2024-03-08T06:08:46;31.33;;;16.13;;
1004;SDS011;491;53.480;10.174;2024-03-08T06:11:14;25.83;;;16.27;;
1004;SDS011;491;53.480;10.174;2024-03-08T06:13:40;26.50;;;16.30;;
1004;SDS011;491;53.480;10.174;2024-03-08T06:16:06;26.50;;;16.10;;
1004;SDS011;491;53.480;10.174;2024-03-08T06:18:33;30.63;;;18.43;;
1004;SDS011;491;53.480;10.174;2024-03-08T06:21:01;20.87;;;14.10;;
1004;SDS011;491;53.480;10.174;2024-03-08T06:23:27;23.67;;;15.27;;
1004;SDS011;491;53.480;10.174;2024-03-08T06:25:53;24.67;;;13.80;;
1004;SDS011;491;53.480;10.174;2024-03-08T06:28:19;26.37;;;16.43;;
1004;SDS011;491;53.480;10.174;2024-03-08T06:30:45;33.03;;;17.20;;
1004;SDS011;491;53.480;10.174;2024-03-08T06:33:11;30.17;;;16.70;;
1004;SDS011;491;53.480;10.174;2024-03-08T06:35:37;31.90;;;17.17;;
1004;SDS011;491;53.480;10.174;2024-03-08T06:38:06;31.00;;;17.83;;
1004;SDS011;491;53.480;10.174;2024-03-08T06:40:32;31.27;;;16.67;;
1004;SDS011;491;53.480;10.174;2024-03-08T06:42:58;35.30;;;17.37;;
1004;SDS011;491;53.480;10.174;2024-03-08T06:45:24;33.33;;;18.67;;
1004;SDS011;491;53.480;10.174;2024-03-08T06:47:50;34.30;;;18.70;;
1004;SDS011;491;53.480;10.174;2024-03-08T06:50:17;33.87;;;19.57;;
1004;SDS011;491;53.480;10.174;2024-03-08T06:52:42;32.90;;;17.80;;
1004;SDS011;491;53.480;10.174;2024-03-08T06:55:09;25.23;;;17.27;;
1004;SDS011;491;53.480;10.174;2024-03-08T06:57:39;25.60;;;18.10;;
1004;SDS011;491;53.480;10.174;2024-03-08T07:00:06;25.27;;;16.33;;
1004;SDS011;491;53.480;10.174;2024-03-08T07:02:34;24.13;;;16.87;;
1004;SDS011;491;53.480;10.174;2024-03-08T07:05:00;23.93;;;15.80;;
1004;SDS011;491;53.480;10.174;2024-03-08T07:07:26;20.53;;;12.73;;
1004;SDS011;491;53.480;10.174;2024-03-08T07:09:52;23.67;;;13.53;;
1004;SDS011;491;53.480;10.174;2024-03-08T07:12:19;21.97;;;14.00;;
1004;SDS011;491;53.480;10.174;2024-03-08T07:14:45;19.53;;;12.90;;
1004;SDS011;491;53.480;10.174;2024-03-08T07:17:12;17.87;;;13.37;;
1004;SDS011;491;53.480;10.174;2024-03-08T07:19:38;23.30;;;13.80;;
1004;SDS011;491;53.480;10.174;2024-03-08T07:22:04;21.17;;;14.27;;
1004;SDS011;491;53.480;10.174;2024-03-08T07:24:33;20.60;;;13.73;;
1004;SDS011;491;53.480;10.174;2024-03-08T07:27:15;25.10;;;15.20;;
1004;SDS011;491;53.480;10.174;2024-03-08T07:29:40;22.73;;;15.13;;
1004;SDS011;491;53.480;10.174;2024-03-08T07:32:07;18.90;;;13.80;;
1004;SDS011;491;53.480;10.174;2024-03-08T07:34:50;21.70;;;15.07;;
1004;SDS011;491;53.480;10.174;2024-03-08T07:37:16;20.67;;;13.20;;
1004;SDS011;491;53.480;10.174;2024-03-08T07:39:42;20.17;;;13.50;;
1004;SDS011;491;53.480;10.174;2024-03-08T07:42:08;21.87;;;14.10;;
1004;SDS011;491;53.480;10.174;2024-03-08T07:44:38;17.90;;;14.13;;
1004;SDS011;491;53.480;10.174;2024-03-08T07:47:04;21.40;;;14.50;;
1004;SDS011;491;53.480;10.174;2024-03-08T07:49:32;19.17;;;13.40;;
1004;SDS011;491;53.480;10.174;2024-03-08T07:51:59;21.20;;;14.77;;
1004;SDS011;491;53.480;10.174;2024-03-08T07:54:25;19.40;;;14.67;;
1004;SDS011;491;53.480;10.174;2024-03-08T07:56:51;23.87;;;15.60;;
1004;SDS011;491;53.480;10.174;2024-03-08T07:59:17;20.30;;;14.50;;
1004;SDS011;491;53.480;10.174;2024-03-08T08:01:43;20.10;;;15.33;;
1004;SDS011;491;53.480;10.174;2024-03-08T08:04:10;17.23;;;13.70;;
1004;SDS011;491;53.480;10.174;2024-03-08T08:06:38;18.07;;;14.17;;
1004;SDS011;491;53.480;10.174;2024-03-08T08:09:07;17.10;;;13.30;;
1004;SDS011;491;53.480;10.174;2024-03-08T08:11:53;21.90;;;15.77;;
1004;SDS011;491;53.480;10.174;2024-03-08T08:14:18;19.27;;;14.53;;
1004;SDS011;491;53.480;10.174;2024-03-08T08:16:46;19.20;;;14.93;;
1004;SDS011;491;53.480;10.174;2024-03-08T08:19:13;18.83;;;14.60;;
1004;SDS011;491;53.480;10.174;2024-03-08T08:21:39;19.27;;;15.90;;
1004;SDS011;491;53.480;10.174;2024-03-08T08:24:05;20.07;;;15.80;;
1004;SDS011;491;53.480;10.174;2024-03-08T08:26:31;20.20;;;16.07;;
1004;SDS011;491;53.480;10.174;2024-03-08T08:29:00;19.00;;;15.93;;
1004;SDS011;491;53.480;10.174;2024-03-08T08:31:26;16.60;;;14.00;;
1004;SDS011;491;53.480;10.174;2024-03-08T08:33:52;19.57;;;14.57;;
1004;SDS011;491;53.480;10.174;2024-03-08T08:36:23;21.40;;;15.40;;
1004;SDS011;491;53.480;10.174;2024-03-08T08:38:49;21.07;;;16.27;;
1004;SDS011;491;53.480;10.174;2024-03-08T08:41:15;19.90;;;17.30;;
1004;SDS011;491;53.480;10.174;2024-03-08T08:43:42;19.63;;;17.03;;
1004;SDS011;491;53.480;10.174;2024-03-08T08:46:09;23.57;;;16.50;;
1004;SDS011;491;53.480;10.174;2024-03-08T08:48:38;19.60;;;15.50;;
1004;SDS011;491;53.480;10.174;2024-03-08T08:51:06;20.77;;;15.10;;
1004;SDS011;491;53.480;10.174;2024-03-08T08:53:32;19.60;;;14.20;;
1004;SDS011;491;53.480;10.174;2024-03-08T08:56:00;18.97;;;16.40;;
1004;SDS011;491;53.480;10.174;2024-03-08T08:58:26;20.50;;;14.27;;
1004;SDS011;491;53.480;10.174;2024-03-08T09:00:52;19.27;;;16.13;;
1004;SDS011;491;53.480;10.174;2024-03-08T09:03:18;18.57;;;15.50;;
1004;SDS011;491;53.480;10.174;2024-03-08T09:05:44;17.27;;;14.80;;
1004;SDS011;491;53.480;10.174;2024-03-08T09:08:10;16.07;;;14.00;;
1004;SDS011;491;53.480;10.174;2024-03-08T09:10:36;20.30;;;16.27;;
1004;SDS011;491;53.480;10.174;2024-03-08T09:13:04;20.27;;;15.67;;
1004;SDS011;491;53.480;10.174;2024-03-08T09:15:31;20.00;;;15.17;;
1004;SDS011;491;53.480;10.174;2024-03-08T09:17:57;20.13;;;15.20;;
1004;SDS011;491;53.480;10.174;2024-03-08T09:20:24;17.90;;;15.10;;
1004;SDS011;491;53.480;10.174;2024-03-08T09:22:50;16.87;;;14.60;;
1004;SDS011;491;53.480;10.174;2024-03-08T09:25:15;17.50;;;15.57;;
1004;SDS011;491;53.480;10.174;2024-03-08T09:27:41;20.87;;;17.27;;
1004;SDS011;491;53.480;10.174;2024-03-08T09:30:07;17.80;;;14.53;;
1004;SDS011;491;53.480;10.174;2024-03-08T09:32:33;21.77;;;16.10;;
1004;SDS011;491;53.480;10.174;2024-03-08T09:34:59;18.77;;;15.77;;
1004;SDS011;491;53.480;10.174;2024-03-08T09:37:26;22.67;;;15.43;;
1004;SDS011;491;53.480;10.174;2024-03-08T09:39:52;17.30;;;14.77;;
1004;SDS011;491;53.480;10.174;2024-03-08T09:42:18;18.80;;;14.27;;
1004;SDS011;491;53.480;10.174;2024-03-08T09:44:45;18.67;;;14.27;;
1004;SDS011;491;53.480;10.174;2024-03-08T09:47:12;20.50;;;15.43;;
1004;SDS011;491;53.480;10.174;2024-03-08T09:49:39;18.70;;;14.33;;
1004;SDS011;491;53.480;10.174;2024-03-08T09:52:05;18.10;;;14.43;;
1004;SDS011;491;53.480;10.174;2024-03-08T09:54:32;19.57;;;15.13;;
1004;SDS011;491;53.480;10.174;2024-03-08T09:56:58;18.47;;;16.23;;
1004;SDS011;491;53.480;10.174;2024-03-08T09:59:24;20.03;;;15.60;;
1004;SDS011;491;53.480;10.174;2024-03-08T10:01:50;19.77;;;16.03;;
1004;SDS011;491;53.480;10.174;2024-03-08T10:04:21;21.50;;;15.70;;
1004;SDS011;491;53.480;10.174;2024-03-08T10:06:48;18.60;;;15.53;;
1004;SDS011;491;53.480;10.174;2024-03-08T10:09:14;19.03;;;13.80;;
1004;SDS011;491;53.480;10.174;2024-03-08T10:11:40;19.10;;;15.67;;
1004;SDS011;491;53.480;10.174;2024-03-08T10:14:07;19.20;;;15.80;;
1004;SDS011;491;53.480;10.174;2024-03-08T10:16:34;21.23;;;15.93;;
1004;SDS011;491;53.480;10.174;2024-03-08T10:19:00;17.60;;;14.73;;
1004;SDS011;491;53.480;10.174;2024-03-08T10:21:26;17.57;;;15.03;;
1004;SDS011;491;53.480;10.174;2024-03-08T10:23:52;17.10;;;14.90;;
1004;SDS011;491;53.480;10.174;2024-03-08T10:26:18;16.97;;;14.00;;
1004;SDS011;491;53.480;10.174;2024-03-08T10:28:50;18.90;;;15.13;;
1004;SDS011;491;53.480;10.174;2024-03-08T10:31:17;16.57;;;14.80;;
1004;SDS011;491;53.480;10.174;2024-03-08T10:33:44;20.33;;;15.53;;
1004;SDS011;491;53.480;10.174;2024-03-08T10:36:10;18.10;;;14.23;;
1004;SDS011;491;53.480;10.174;2024-03-08T10:38:38;16.70;;;13.97;;
1004;SDS011;491;53.480;10.174;2024-03-08T10:41:05;15.40;;;12.53;;
1004;SDS011;491;53.480;10.174;2024-03-08T10:43:32;18.70;;;16.30;;
1004;SDS011;491;53.480;10.174;2024-03-08T10:48:47;21.67;;;19.33;;
1004;SDS011;491;53.480;10.174;2024-03-08T10:51:15;17.10;;;14.10;;
1004;SDS011;491;53.480;10.174;2024-03-08T10:53:41;16.40;;;13.13;;
1004;SDS011;491;53.480;10.174;2024-03-08T10:56:08;17.40;;;12.40;;
1004;SDS011;491;53.480;10.174;2024-03-08T10:58:35;15.37;;;13.80;;
1004;SDS011;491;53.480;10.174;2024-03-08T11:01:01;15.97;;;14.30;;
1004;SDS011;491;53.480;10.174;2024-03-08T11:08:48;14.90;;;12.80;;
1004;SDS011;491;53.480;10.174;2024-03-08T11:11:25;17.10;;;14.90;;
1004;SDS011;491;53.480;10.174;2024-03-08T11:13:52;16.37;;;13.67;;
1004;SDS011;491;53.480;10.174;2024-03-08T11:18:54;16.73;;;14.17;;
1004;SDS011;491;53.480;10.174;2024-03-08T11:21:21;14.90;;;12.60;;
1004;SDS011;491;53.480;10.174;2024-03-08T11:24:00;16.53;;;12.50;;
1004;SDS011;491;53.480;10.174;2024-03-08T11:26:26;14.63;;;11.77;;
1004;SDS011;491;53.480;10.174;2024-03-08T11:28:52;14.97;;;12.77;;
1004;SDS011;491;53.480;10.174;2024-03-08T11:33:46;14.90;;;12.37;;
1004;SDS011;491;53.480;10.174;2024-03-08T11:36:20;15.57;;;12.27;;
1004;SDS011;491;53.480;10.174;2024-03-08T11:38:47;15.57;;;12.27;;
1004;SDS011;491;53.480;10.174;2024-03-08T11:41:13;16.17;;;12.80;;
1004;SDS011;491;53.480;10.174;2024-03-08T11:43:40;16.83;;;12.93;;
1004;SDS011;491;53.480;10.174;2024-03-08T11:46:09;19.67;;;14.13;;
1004;SDS011;491;53.480;10.174;2024-03-08T11:48:37;16.40;;;13.07;;
1004;SDS011;491;53.480;10.174;2024-03-08T11:51:03;16.00;;;13.77;;
1004;SDS011;491;53.480;10.174;2024-03-08T11:53:30;13.30;;;11.60;;
1004;SDS011;491;53.480;10.174;2024-03-08T11:56:05;12.70;;;11.40;;
1004;SDS011;491;53.480;10.174;2024-03-08T11:58:31;16.60;;;13.30;;
1004;SDS011;491;53.480;10.174;2024-03-08T12:01:06;16.53;;;12.70;;
1004;SDS011;491;53.480;10.174;2024-03-08T12:03:34;14.73;;;12.27;;
1004;SDS011;491;53.480;10.174;2024-03-08T12:06:00;15.30;;;11.17;;
1004;SDS011;491;53.480;10.174;2024-03-08T12:08:28;14.80;;;12.77;;
1004;SDS011;491;53.480;10.174;2024-03-08T12:10:54;15.73;;;12.30;;
1004;SDS011;491;53.480;10.174;2024-03-08T12:13:25;15.97;;;12.63;;
1004;SDS011;491;53.480;10.174;2024-03-08T12:15:51;15.10;;;13.00;;
1004;SDS011;491;53.480;10.174;2024-03-08T12:18:17;11.83;;;10.30;;
1004;SDS011;491;53.480;10.174;2024-03-08T12:20:43;12.50;;;11.20;;
1004;SDS011;491;53.480;10.174;2024-03-08T12:23:14;17.50;;;11.70;;
1004;SDS011;491;53.480;10.174;2024-03-08T12:25:41;14.63;;;11.83;;
1004;SDS011;491;53.480;10.174;2024-03-08T12:28:11;16.20;;;13.63;;
1004;SDS011;491;53.480;10.174;2024-03-08T12:30:50;14.47;;;10.67;;
1004;SDS011;491;53.480;10.174;2024-03-08T12:33:22;16.23;;;11.67;;
1004;SDS011;491;53.480;10.174;2024-03-08T12:35:51;15.13;;;12.13;;
1004;SDS011;491;53.480;10.174;2024-03-08T12:38:20;12.50;;;11.00;;
1004;SDS011;491;53.480;10.174;2024-03-08T12:40:50;14.90;;;11.70;;
1004;SDS011;491;53.480;10.174;2024-03-08T12:43:16;16.67;;;11.73;;
1004;SDS011;491;53.480;10.174;2024-03-08T12:45:42;13.57;;;11.63;;
1004;SDS011;491;53.480;10.174;2024-03-08T12:48:15;13.23;;;11.83;;
1004;SDS011;491;53.480;10.174;2024-03-08T12:50:41;14.17;;;11.43;;
1004;SDS011;491;53.480;10.174;2024-03-08T12:53:12;15.70;;;11.80;;
1004;SDS011;491;53.480;10.174;2024-03-08T12:55:38;14.33;;;12.60;;
1004;SDS011;491;53.480;10.174;2024-03-08T12:58:05;12.73;;;11.30;;
1004;SDS011;491;53.480;10.174;2024-03-08T13:00:32;14.10;;;11.40;;
1004;SDS011;491;53.480;10.174;2024-03-08T13:03:01;12.53;;;10.30;;
1004;SDS011;491;53.480;10.174;2024-03-08T13:05:27;13.27;;;11.97;;
1004;SDS011;491;53.480;10.174;2024-03-08T13:07:53;16.43;;;12.43;;
1004;SDS011;491;53.480;10.174;2024-03-08T13:10:19;17.00;;;12.20;;
1004;SDS011;491;53.480;10.174;2024-03-08T13:12:46;13.30;;;11.07;;
1004;SDS011;491;53.480;10.174;2024-03-08T13:15:11;15.70;;;12.33;;
1004;SDS011;491;53.480;10.174;2024-03-08T13:17:45;14.43;;;11.60;;
1004;SDS011;491;53.480;10.174;2024-03-08T13:20:11;12.93;;;11.17;;
1004;SDS011;491;53.480;10.174;2024-03-08T13:22:43;12.07;;;8.90;;
1004;SDS011;491;53.480;10.174;2024-03-08T13:25:11;14.10;;;11.27;;
1004;SDS011;491;53.480;10.174;2024-03-08T13:27:41;16.43;;;10.73;;
1004;SDS011;491;53.480;10.174;2024-03-08T13:30:14;15.23;;;11.37;;
1004;SDS011;491;53.480;10.174;2024-03-08T13:32:43;14.30;;;10.00;;
1004;SDS011;491;53.480;10.174;2024-03-08T13:35:09;13.60;;;10.30;;
1004;SDS011;491;53.480;10.174;2024-03-08T13:37:42;13.33;;;9.30;;
1004;SDS011;491;53.480;10.174;2024-03-08T13:40:08;13.07;;;10.60;;
1004;SDS011;491;53.480;10.174;2024-03-08T13:42:41;16.70;;;10.67;;
1004;SDS011;491;53.480;10.174;2024-03-08T13:45:08;13.53;;;10.13;;
1004;SDS011;491;53.480;10.174;2024-03-08T13:47:38;15.00;;;10.33;;
1004;SDS011;491;53.480;10.174;2024-03-08T13:50:10;14.13;;;9.23;;
1004;SDS011;491;53.480;10.174;2024-03-08T13:52:43;14.67;;;9.90;;
1004;SDS011;491;53.480;10.174;2024-03-08T13:55:09;14.80;;;9.70;;
1004;SDS011;491;53.480;10.174;2024-03-08T13:57:36;16.03;;;10.43;;
1004;SDS011;491;53.480;10.174;2024-03-08T14:00:02;14.47;;;10.33;;
1004;SDS011;491;53.480;10.174;2024-03-08T14:02:28;14.60;;;11.60;;
1004;SDS011;491;53.480;10.174;2024-03-08T14:04:55;18.30;;;10.03;;
1004;SDS011;491;53.480;10.174;2024-03-08T14:07:21;16.60;;;12.30;;
1004;SDS011;491;53.480;10.174;2024-03-08T14:09:48;15.47;;;9.67;;
1004;SDS011;491;53.480;10.174;2024-03-08T14:12:14;15.60;;;8.90;;
1004;SDS011;491;53.480;10.174;2024-03-08T14:14:43;17.47;;;11.03;;
1004;SDS011;491;53.480;10.174;2024-03-08T14:17:09;14.70;;;10.53;;
1004;SDS011;491;53.480;10.174;2024-03-08T14:19:36;16.17;;;11.10;;
1004;SDS011;491;53.480;10.174;2024-03-08T14:22:02;16.30;;;11.00;;
1004;SDS011;491;53.480;10.174;2024-03-08T14:24:29;14.60;;;9.70;;
1004;SDS011;491;53.480;10.174;2024-03-08T14:26:56;14.63;;;9.53;;
1004;SDS011;491;53.480;10.174;2024-03-08T14:29:23;16.13;;;10.97;;
1004;SDS011;491;53.480;10.174;2024-03-08T14:31:50;13.43;;;10.60;;
1004;SDS011;491;53.480;10.174;2024-03-08T14:34:16;16.27;;;10.23;;
1004;SDS011;491;53.480;10.174;2024-03-08T14:36:42;15.00;;;9.80;;
1004;SDS011;491;53.480;10.174;2024-03-08T14:39:09;13.83;;;10.53;;
1004;SDS011;491;53.480;10.174;2024-03-08T14:41:35;16.50;;;9.83;;
1004;SDS011;491;53.480;10.174;2024-03-08T14:44:01;15.57;;;9.40;;
1004;SDS011;491;53.480;10.174;2024-03-08T14:46:27;14.03;;;9.20;;
1004;SDS011;491;53.480;10.174;2024-03-08T14:48:53;13.70;;;9.43;;
1004;SDS011;491;53.480;10.174;2024-03-08T14:51:19;18.33;;;10.93;;
1004;SDS011;491;53.480;10.174;2024-03-08T14:53:51;12.77;;;7.50;;
1004;SDS011;491;53.480;10.174;2024-03-08T14:56:17;14.73;;;9.10;;
1004;SDS011;491;53.480;10.174;2024-03-08T14:58:44;18.63;;;10.00;;
1004;SDS011;491;53.480;10.174;2024-03-08T15:01:11;16.30;;;9.63;;